createdAt,value
2017-08-13T00:00:12.823Z,0
2017-08-13T00:01:12.850Z,0
2017-08-13T00:02:12.491Z,0
2017-08-13T00:03:12.188Z,0
2017-08-13T00:04:12.486Z,0
2017-08-13T00:05:12.452Z,0
2017-08-13T00:06:11.803Z,0
2017-08-13T00:07:12.811Z,0
2017-08-13T00:08:12.443Z,0
2017-08-13T00:09:12.452Z,0
2017-08-13T00:10:12.748Z,0
2017-08-13T00:11:12.773Z,0
2017-08-13T00:12:12.448Z,0
2017-08-13T00:13:12.402Z,0
2017-08-13T00:14:12.079Z,0
2017-08-13T00:15:12.708Z,0
2017-08-13T00:16:12.714Z,0
2017-08-13T00:17:12.375Z,0
2017-08-13T00:18:12.411Z,0
2017-08-13T00:19:12.688Z,0
2017-08-13T00:20:12.689Z,0
2017-08-13T00:21:12.670Z,0
2017-08-13T00:22:12.363Z,0
2017-08-13T00:23:12.671Z,0
2017-08-13T00:24:12.653Z,0
2017-08-13T00:25:12.402Z,0
2017-08-13T00:26:12.338Z,0
2017-08-13T00:27:12.344Z,0
2017-08-13T00:28:12.307Z,0
2017-08-13T00:29:12.313Z,0
2017-08-13T00:30:12.317Z,0
2017-08-13T00:31:12.605Z,0
2017-08-13T00:32:12.293Z,0
2017-08-13T00:33:12.286Z,0
2017-08-13T00:34:12.294Z,0
2017-08-13T00:35:12.590Z,0
2017-08-13T00:36:12.616Z,0
2017-08-13T00:37:12.272Z,0
2017-08-13T00:38:12.569Z,0
2017-08-13T00:39:12.569Z,0
2017-08-13T00:40:11.615Z,0
2017-08-13T00:41:11.906Z,0
2017-08-13T00:42:12.546Z,0
2017-08-13T00:43:12.225Z,0
2017-08-13T00:44:12.536Z,0
2017-08-13T00:45:12.530Z,0
2017-08-13T00:46:12.521Z,0
2017-08-13T00:47:12.203Z,0
2017-08-13T00:48:11.913Z,0
2017-08-13T00:49:12.186Z,0
2017-08-13T00:50:12.209Z,0
2017-08-13T00:51:12.489Z,0
2017-08-13T00:52:12.179Z,0
2017-08-13T00:53:12.474Z,0
2017-08-13T00:54:12.468Z,0
2017-08-13T00:55:12.458Z,0
2017-08-13T00:56:12.469Z,0
2017-08-13T00:57:11.809Z,0
2017-08-13T00:58:11.830Z,0
2017-08-13T00:59:12.134Z,0
2017-08-13T01:00:12.429Z,0
2017-08-13T01:01:12.103Z,0
2017-08-13T01:02:11.775Z,0
2017-08-13T01:03:12.115Z,0
2017-08-13T01:04:12.115Z,0
2017-08-13T01:05:12.086Z,0
2017-08-13T01:06:12.439Z,0
2017-08-13T01:07:12.403Z,0
2017-08-13T01:08:11.764Z,0
2017-08-13T01:09:11.770Z,0
2017-08-13T01:10:11.723Z,0
2017-08-13T01:11:11.732Z,0
2017-08-13T01:12:12.378Z,0
2017-08-13T01:13:12.357Z,0
2017-08-13T01:14:12.021Z,0
2017-08-13T01:15:11.692Z,0
2017-08-13T01:16:12.332Z,0
2017-08-13T01:17:12.024Z,0
2017-08-13T01:18:12.028Z,0
2017-08-13T01:19:12.342Z,0
2017-08-13T01:20:11.992Z,0
2017-08-13T01:21:11.989Z,0
2017-08-13T01:22:11.983Z,0
2017-08-13T01:23:11.976Z,0
2017-08-13T01:24:11.638Z,0
2017-08-13T01:25:11.954Z,0
2017-08-13T01:26:11.637Z,0
2017-08-13T01:27:11.956Z,0
2017-08-13T01:28:11.937Z,0
2017-08-13T01:29:12.269Z,0
2017-08-13T01:30:11.928Z,0
2017-08-13T01:31:11.598Z,0
2017-08-13T01:32:11.925Z,0
2017-08-13T01:33:11.914Z,0
2017-08-13T01:34:12.228Z,0
2017-08-13T01:35:12.215Z,0
2017-08-13T01:36:11.593Z,0
2017-08-13T01:37:12.234Z,0
2017-08-13T01:38:12.196Z,0
2017-08-13T01:39:12.191Z,0
2017-08-13T01:40:11.876Z,0
2017-08-13T01:41:11.858Z,0
2017-08-13T01:42:12.170Z,0
2017-08-13T01:43:12.171Z,0
2017-08-13T01:44:11.835Z,0
2017-08-13T01:45:12.167Z,0
2017-08-13T01:46:12.174Z,0
2017-08-13T01:47:12.150Z,0
2017-08-13T01:48:11.825Z,0
2017-08-13T01:49:12.131Z,0
2017-08-13T01:50:11.800Z,0
2017-08-13T01:51:12.132Z,0
2017-08-13T01:52:11.465Z,0
2017-08-13T01:53:12.105Z,0
2017-08-13T01:54:11.781Z,0
2017-08-13T01:55:12.095Z,0
2017-08-13T01:56:11.438Z,0
2017-08-13T01:57:12.076Z,0
2017-08-13T01:58:12.105Z,0
2017-08-13T01:59:11.764Z,0
2017-08-13T02:00:11.749Z,0
2017-08-13T02:01:12.055Z,0
2017-08-13T02:02:11.398Z,0
2017-08-13T02:03:12.096Z,0
2017-08-13T02:04:11.731Z,0
2017-08-13T02:05:11.388Z,0
2017-08-13T02:06:11.707Z,0
2017-08-13T02:07:11.709Z,0
2017-08-13T02:08:11.743Z,0
2017-08-13T02:09:12.030Z,0
2017-08-13T02:10:11.997Z,0
2017-08-13T02:11:11.672Z,0
2017-08-13T02:12:11.662Z,0
2017-08-13T02:13:12.000Z,0
2017-08-13T02:14:11.997Z,0
2017-08-13T02:15:11.982Z,0
2017-08-13T02:16:11.634Z,0
2017-08-13T02:17:11.640Z,0
2017-08-13T02:18:11.636Z,0
2017-08-13T02:19:11.621Z,0
2017-08-13T02:20:11.622Z,0
2017-08-13T02:21:11.938Z,0
2017-08-13T02:22:11.664Z,0
2017-08-13T02:23:11.605Z,0
2017-08-13T02:24:11.593Z,0
2017-08-13T02:25:11.908Z,0
2017-08-13T02:26:11.602Z,0
2017-08-13T02:27:11.595Z,0
2017-08-13T02:28:11.594Z,0
2017-08-13T02:29:11.248Z,0
2017-08-13T02:30:11.887Z,0
2017-08-13T02:31:11.547Z,0
2017-08-13T02:32:11.548Z,0
2017-08-13T02:33:11.250Z,0
2017-08-13T02:34:11.535Z,0
2017-08-13T02:35:11.883Z,0
2017-08-13T02:36:11.522Z,0
2017-08-13T02:37:11.188Z,0
2017-08-13T02:38:11.509Z,0
2017-08-13T02:39:11.871Z,0
2017-08-13T02:40:11.819Z,0
2017-08-13T02:41:11.852Z,0
2017-08-13T02:42:11.512Z,0
2017-08-13T02:43:11.531Z,0
2017-08-13T02:44:11.807Z,0
2017-08-13T02:45:11.464Z,0
2017-08-13T02:46:11.801Z,0
2017-08-13T02:47:11.779Z,0
2017-08-13T02:48:11.784Z,0
2017-08-13T02:49:11.456Z,0
2017-08-13T02:50:11.124Z,0
2017-08-13T02:51:11.470Z,0
2017-08-13T02:52:11.759Z,0
2017-08-13T02:53:11.444Z,0
2017-08-13T02:54:11.419Z,0
2017-08-13T02:55:11.723Z,0
2017-08-13T02:56:11.405Z,0
2017-08-13T02:57:11.416Z,0
2017-08-13T02:58:11.087Z,0
2017-08-13T02:59:11.381Z,0
2017-08-13T03:00:11.052Z,0
2017-08-13T03:01:11.715Z,0
2017-08-13T03:02:11.396Z,0
2017-08-13T03:03:11.053Z,0
2017-08-13T03:04:11.677Z,0
2017-08-13T03:05:11.409Z,0
2017-08-13T03:06:11.028Z,0
2017-08-13T03:07:11.331Z,0
2017-08-13T03:08:11.668Z,0
2017-08-13T03:09:11.004Z,0
2017-08-13T03:10:11.314Z,0
2017-08-13T03:11:10.990Z,0
2017-08-13T03:12:11.335Z,0
2017-08-13T03:13:11.322Z,0
2017-08-13T03:14:11.309Z,0
2017-08-13T03:15:11.616Z,0
2017-08-13T03:16:11.281Z,0
2017-08-13T03:17:11.595Z,0
2017-08-13T03:18:11.273Z,0
2017-08-13T03:19:11.603Z,0
2017-08-13T03:20:10.946Z,0
2017-08-13T03:21:11.570Z,0
2017-08-13T03:22:11.593Z,0
2017-08-13T03:23:11.265Z,0
2017-08-13T03:24:10.919Z,0
2017-08-13T03:25:11.570Z,0
2017-08-13T03:26:10.952Z,0
2017-08-13T03:27:11.214Z,0
2017-08-13T03:28:11.235Z,0
2017-08-13T03:29:11.242Z,0
2017-08-13T03:30:10.909Z,0
2017-08-13T03:31:11.208Z,0
2017-08-13T03:32:11.482Z,8
2017-08-13T03:33:10.878Z,8
2017-08-13T03:34:11.502Z,8
2017-08-13T03:35:11.174Z,8
2017-08-13T03:36:11.170Z,8
2017-08-13T03:37:11.507Z,12
2017-08-13T03:38:11.515Z,8
2017-08-13T03:39:11.481Z,12
2017-08-13T03:40:11.469Z,16
2017-08-13T03:41:11.501Z,20
2017-08-13T03:42:11.137Z,20
2017-08-13T03:43:11.122Z,28
2017-08-13T03:44:11.120Z,32
2017-08-13T03:45:11.468Z,36
2017-08-13T03:46:11.120Z,40
2017-08-13T03:47:11.122Z,44
2017-08-13T03:48:11.438Z,52
2017-08-13T03:49:10.778Z,56
2017-08-13T03:50:11.130Z,60
2017-08-13T03:51:11.410Z,60
2017-08-13T03:52:11.084Z,68
2017-08-13T03:53:11.398Z,84
2017-08-13T03:54:10.740Z,92
2017-08-13T03:55:11.285Z,96
2017-08-13T03:56:11.389Z,96
2017-08-13T03:57:11.070Z,100
2017-08-13T03:58:11.060Z,112
2017-08-13T03:59:11.059Z,128
2017-08-13T04:00:11.036Z,148
2017-08-13T04:01:11.040Z,164
2017-08-13T04:02:11.045Z,188
2017-08-13T04:03:11.336Z,216
2017-08-13T04:04:11.036Z,236
2017-08-13T04:05:11.025Z,248
2017-08-13T04:06:11.019Z,264
2017-08-13T04:07:11.310Z,288
2017-08-13T04:08:11.312Z,296
2017-08-13T04:09:11.303Z,300
2017-08-13T04:10:10.991Z,320
2017-08-13T04:11:11.323Z,344
2017-08-13T04:12:10.642Z,376
2017-08-13T04:13:10.801Z,408
2017-08-13T04:14:10.954Z,436
2017-08-13T04:15:11.268Z,464
2017-08-13T04:16:10.945Z,488
2017-08-13T04:17:11.260Z,500
2017-08-13T04:18:10.930Z,496
2017-08-13T04:19:11.281Z,484
2017-08-13T04:20:10.924Z,480
2017-08-13T04:21:10.934Z,508
2017-08-13T04:22:10.906Z,544
2017-08-13T04:23:11.255Z,584
2017-08-13T04:24:10.921Z,624
2017-08-13T04:25:11.214Z,672
2017-08-13T04:26:10.880Z,740
2017-08-13T04:27:11.200Z,812
2017-08-13T04:28:10.892Z,868
2017-08-13T04:29:11.239Z,880
2017-08-13T04:30:10.904Z,844
2017-08-13T04:31:10.857Z,768
2017-08-13T04:32:11.168Z,728
2017-08-13T04:33:10.546Z,756
2017-08-13T04:34:10.553Z,808
2017-08-13T04:35:11.159Z,832
2017-08-13T04:36:10.827Z,800
2017-08-13T04:37:10.824Z,760
2017-08-13T04:38:10.818Z,764
2017-08-13T04:39:11.151Z,856
2017-08-13T04:40:10.804Z,1032
2017-08-13T04:41:10.820Z,1276
2017-08-13T04:42:10.812Z,1500
2017-08-13T04:43:10.469Z,1660
2017-08-13T04:44:10.469Z,1840
2017-08-13T04:45:10.797Z,2064
2017-08-13T04:46:10.799Z,2240
2017-08-13T04:47:10.765Z,2236
2017-08-13T04:48:11.089Z,1924
2017-08-13T04:49:10.773Z,1576
2017-08-13T04:50:11.070Z,1328
2017-08-13T04:51:11.069Z,1240
2017-08-13T04:52:11.069Z,1276
2017-08-13T04:53:10.428Z,1356
2017-08-13T04:54:10.751Z,1384
2017-08-13T04:55:11.050Z,1308
2017-08-13T04:56:10.417Z,1200
2017-08-13T04:57:11.035Z,1084
2017-08-13T04:58:10.705Z,964
2017-08-13T04:59:11.028Z,872
2017-08-13T05:00:11.050Z,868
2017-08-13T05:01:11.024Z,928
2017-08-13T05:02:10.713Z,1036
2017-08-13T05:03:10.713Z,1256
2017-08-13T05:04:10.703Z,1632
2017-08-13T05:05:10.728Z,2024
2017-08-13T05:06:10.371Z,2188
2017-08-13T05:07:10.669Z,2096
2017-08-13T05:08:10.661Z,2016
2017-08-13T05:09:10.649Z,2108
2017-08-13T05:10:10.995Z,2252
2017-08-13T05:11:10.504Z,2300
2017-08-13T05:12:10.969Z,2420
2017-08-13T05:13:10.310Z,2756
2017-08-13T05:14:10.975Z,3148
2017-08-13T05:15:10.637Z,3292
2017-08-13T05:16:10.314Z,3268
2017-08-13T05:17:10.645Z,3244
2017-08-13T05:18:10.285Z,3240
2017-08-13T05:19:10.926Z,3256
2017-08-13T05:20:10.304Z,3248
2017-08-13T05:21:10.909Z,3232
2017-08-13T05:22:10.922Z,3284
2017-08-13T05:23:10.942Z,3304
2017-08-13T05:24:10.588Z,3288
2017-08-13T05:25:10.579Z,3352
2017-08-13T05:26:10.920Z,3428
2017-08-13T05:27:10.943Z,3512
2017-08-13T05:28:10.567Z,3632
2017-08-13T05:29:10.557Z,3732
2017-08-13T05:30:10.901Z,3756
2017-08-13T05:31:10.557Z,3776
2017-08-13T05:32:10.861Z,3824
2017-08-13T05:33:10.527Z,3900
2017-08-13T05:34:10.554Z,3916
2017-08-13T05:35:10.569Z,3888
2017-08-13T05:36:10.535Z,3960
2017-08-13T05:37:10.195Z,4176
2017-08-13T05:38:10.514Z,4360
2017-08-13T05:39:10.831Z,4476
2017-08-13T05:40:10.522Z,4524
2017-08-13T05:41:10.827Z,4684
2017-08-13T05:42:09.870Z,4884
2017-08-13T05:43:10.837Z,4992
2017-08-13T05:44:10.169Z,4924
2017-08-13T05:45:10.507Z,4800
2017-08-13T05:46:10.803Z,4860
2017-08-13T05:47:10.792Z,4916
2017-08-13T05:48:10.782Z,5308
2017-08-13T05:49:10.806Z,5280
2017-08-13T05:50:10.780Z,5612
2017-08-13T05:51:10.787Z,5708
2017-08-13T05:52:10.786Z,5732
2017-08-13T05:53:10.130Z,5436
2017-08-13T05:54:10.764Z,5360
2017-08-13T05:55:10.774Z,5504
2017-08-13T05:56:10.432Z,5688
2017-08-13T05:57:10.119Z,5588
2017-08-13T05:58:10.774Z,5488
2017-08-13T05:59:10.434Z,5268
2017-08-13T06:00:10.441Z,4064
2017-08-13T06:01:10.423Z,4316
2017-08-13T06:02:10.408Z,5052
2017-08-13T06:03:10.407Z,4604
2017-08-13T06:04:10.433Z,4792
2017-08-13T06:05:10.085Z,5008
2017-08-13T06:06:10.393Z,5252
2017-08-13T06:07:10.092Z,5596
2017-08-13T06:08:10.727Z,5528
2017-08-13T06:09:10.710Z,5860
2017-08-13T06:10:10.375Z,4896
2017-08-13T06:11:10.706Z,4264
2017-08-13T06:12:10.711Z,3956
2017-08-13T06:13:10.677Z,4416
2017-08-13T06:14:10.672Z,4652
2017-08-13T06:15:10.426Z,4680
2017-08-13T06:16:10.043Z,3896
2017-08-13T06:17:10.346Z,4000
2017-08-13T06:18:10.676Z,3928
2017-08-13T06:19:10.025Z,3576
2017-08-13T06:20:10.328Z,3304
2017-08-13T06:21:10.349Z,3320
2017-08-13T06:22:10.348Z,2720
2017-08-13T06:23:10.633Z,2276
2017-08-13T06:24:10.634Z,2952
2017-08-13T06:25:10.330Z,3436
2017-08-13T06:26:10.653Z,3380
2017-08-13T06:27:10.618Z,3140
2017-08-13T06:28:10.297Z,3224
2017-08-13T06:29:10.608Z,4544
2017-08-13T06:30:10.282Z,4840
2017-08-13T06:31:10.622Z,6272
2017-08-13T06:32:10.283Z,6624
2017-08-13T06:33:10.276Z,5060
2017-08-13T06:34:10.270Z,5164
2017-08-13T06:35:10.305Z,5496
2017-08-13T06:36:10.586Z,5392
2017-08-13T06:37:10.266Z,6440
2017-08-13T06:38:10.602Z,7276
2017-08-13T06:39:10.253Z,8996
2017-08-13T06:40:10.279Z,7416
2017-08-13T06:41:10.260Z,6360
2017-08-13T06:42:10.234Z,6152
2017-08-13T06:43:10.242Z,5808
2017-08-13T06:44:10.555Z,5064
2017-08-13T06:45:10.225Z,4820
2017-08-13T06:46:10.540Z,5336
2017-08-13T06:47:10.556Z,5380
2017-08-13T06:48:10.237Z,5472
2017-08-13T06:49:10.526Z,6576
2017-08-13T06:50:11.229Z,7616
2017-08-13T06:51:10.248Z,9232
2017-08-13T06:52:10.238Z,10052
2017-08-13T06:53:10.547Z,11192
2017-08-13T06:54:09.887Z,12968
2017-08-13T06:55:10.506Z,14088
2017-08-13T06:56:10.210Z,13352
2017-08-13T06:57:10.193Z,12864
2017-08-13T06:58:10.181Z,12540
2017-08-13T06:59:10.178Z,10396
2017-08-13T07:00:09.854Z,9532
2017-08-13T07:01:10.522Z,9832
2017-08-13T07:02:10.157Z,9976
2017-08-13T07:03:10.489Z,10280
2017-08-13T07:04:10.475Z,11300
2017-08-13T07:05:10.139Z,13424
2017-08-13T07:06:10.178Z,14460
2017-08-13T07:07:10.467Z,14548
2017-08-13T07:08:10.465Z,14148
2017-08-13T07:09:09.825Z,13396
2017-08-13T07:10:09.810Z,12332
2017-08-13T07:11:09.489Z,10644
2017-08-13T07:12:09.819Z,9232
2017-08-13T07:13:10.453Z,8856
2017-08-13T07:14:10.146Z,9124
2017-08-13T07:15:10.433Z,10208
2017-08-13T07:16:10.150Z,11668
2017-08-13T07:17:10.122Z,12356
2017-08-13T07:18:10.479Z,10840
2017-08-13T07:19:10.103Z,10068
2017-08-13T07:20:10.424Z,8516
2017-08-13T07:21:10.126Z,7712
2017-08-13T07:22:10.111Z,7616
2017-08-13T07:23:09.772Z,7768
2017-08-13T07:24:10.122Z,8360
2017-08-13T07:25:10.409Z,9428
2017-08-13T07:26:10.131Z,10500
2017-08-13T07:27:10.419Z,12140
2017-08-13T07:28:09.755Z,13704
2017-08-13T07:29:10.073Z,14064
2017-08-13T07:30:10.093Z,11720
2017-08-13T07:31:10.411Z,9112
2017-08-13T07:32:10.387Z,8344
2017-08-13T07:33:10.146Z,8744
2017-08-13T07:34:09.745Z,9512
2017-08-13T07:35:10.094Z,9320
2017-08-13T07:36:10.055Z,8664
2017-08-13T07:37:10.417Z,8556
2017-08-13T07:38:10.374Z,9180
2017-08-13T07:39:10.075Z,10488
2017-08-13T07:40:10.112Z,12692
2017-08-13T07:41:10.067Z,15544
2017-08-13T07:42:10.073Z,19296
2017-08-13T07:43:10.357Z,18464
2017-08-13T07:44:10.364Z,16332
2017-08-13T07:45:10.378Z,13420
2017-08-13T07:46:09.707Z,13196
2017-08-13T07:47:10.050Z,13640
2017-08-13T07:48:10.352Z,11704
2017-08-13T07:49:10.021Z,10564
2017-08-13T07:50:10.027Z,9948
2017-08-13T07:51:10.344Z,9468
2017-08-13T07:52:10.027Z,10720
2017-08-13T07:53:10.334Z,11864
2017-08-13T07:54:09.715Z,11360
2017-08-13T07:55:10.030Z,11164
2017-08-13T07:56:09.368Z,10112
2017-08-13T07:57:10.328Z,10216
2017-08-13T07:58:10.016Z,11308
2017-08-13T07:59:10.038Z,10616
2017-08-13T08:00:10.372Z,10728
2017-08-13T08:01:09.709Z,9780
2017-08-13T08:02:10.017Z,9316
2017-08-13T08:03:10.322Z,10040
2017-08-13T08:04:10.336Z,9328
2017-08-13T08:05:10.310Z,10480
2017-08-13T08:06:10.304Z,10488
2017-08-13T08:07:10.004Z,10144
2017-08-13T08:08:10.021Z,10884
2017-08-13T08:09:10.324Z,11676
2017-08-13T08:10:10.030Z,13664
2017-08-13T08:11:10.299Z,13756
2017-08-13T08:12:10.292Z,11884
2017-08-13T08:13:09.332Z,10556
2017-08-13T08:14:10.285Z,10288
2017-08-13T08:15:10.285Z,11304
2017-08-13T08:16:09.967Z,12612
2017-08-13T08:17:09.655Z,10900
2017-08-13T08:18:10.295Z,10864
2017-08-13T08:19:10.302Z,10332
2017-08-13T08:20:10.284Z,9812
2017-08-13T08:21:09.958Z,10052
2017-08-13T08:22:10.275Z,9060
2017-08-13T08:23:10.339Z,7372
2017-08-13T08:24:10.284Z,7760
2017-08-13T08:25:09.655Z,7452
2017-08-13T08:26:10.279Z,9036
2017-08-13T08:27:10.274Z,10800
2017-08-13T08:28:09.944Z,10220
2017-08-13T08:29:10.257Z,11304
2017-08-13T08:30:10.268Z,16044
2017-08-13T08:31:10.280Z,16736
2017-08-13T08:32:09.928Z,15480
2017-08-13T08:33:10.250Z,11096
2017-08-13T08:34:10.242Z,9732
2017-08-13T08:35:09.601Z,10448
2017-08-13T08:36:10.241Z,11640
2017-08-13T08:37:09.959Z,12336
2017-08-13T08:38:09.928Z,13240
2017-08-13T08:39:09.926Z,14328
2017-08-13T08:40:09.911Z,17632
2017-08-13T08:41:09.591Z,16004
2017-08-13T08:42:10.270Z,13388
2017-08-13T08:43:10.232Z,11032
2017-08-13T08:44:09.932Z,10688
2017-08-13T08:45:10.249Z,11440
2017-08-13T08:46:10.251Z,9572
2017-08-13T08:47:09.582Z,12188
2017-08-13T08:48:10.250Z,16608
2017-08-13T08:49:10.239Z,15112
2017-08-13T08:50:09.573Z,11676
2017-08-13T08:51:10.216Z,9756
2017-08-13T08:52:09.935Z,8340
2017-08-13T08:53:10.237Z,9000
2017-08-13T08:54:10.245Z,10720
2017-08-13T08:55:09.894Z,10596
2017-08-13T08:56:09.898Z,10316
2017-08-13T08:57:09.574Z,8372
2017-08-13T08:58:09.887Z,8864
2017-08-13T08:59:09.599Z,6332
2017-08-13T09:00:10.300Z,4504
2017-08-13T09:01:09.896Z,4172
2017-08-13T09:02:10.242Z,4936
2017-08-13T09:03:10.201Z,6372
2017-08-13T09:04:09.874Z,6628
2017-08-13T09:05:09.912Z,7288
2017-08-13T09:06:09.913Z,6736
2017-08-13T09:07:09.557Z,6408
2017-08-13T09:08:10.190Z,6300
2017-08-13T09:09:09.882Z,7852
2017-08-13T09:10:09.874Z,6676
2017-08-13T09:11:09.886Z,7680
2017-08-13T09:12:09.893Z,7052
2017-08-13T09:13:09.888Z,6072
2017-08-13T09:14:09.862Z,7444
2017-08-13T09:15:09.855Z,7872
2017-08-13T09:16:09.561Z,8360
2017-08-13T09:17:09.559Z,9688
2017-08-13T09:18:09.851Z,10028
2017-08-13T09:19:09.889Z,10116
2017-08-13T09:20:09.851Z,9276
2017-08-13T09:21:09.848Z,9156
2017-08-13T09:22:09.862Z,10104
2017-08-13T09:23:09.548Z,17632
2017-08-13T09:24:10.169Z,20256
2017-08-13T09:25:09.841Z,16704
2017-08-13T09:26:09.524Z,12300
2017-08-13T09:27:09.518Z,11952
2017-08-13T09:28:09.835Z,12640
2017-08-13T09:29:09.510Z,10292
2017-08-13T09:30:09.854Z,9368
2017-08-13T09:31:09.823Z,8976
2017-08-13T09:32:09.206Z,8620
2017-08-13T09:33:10.169Z,10996
2017-08-13T09:34:09.528Z,9092
2017-08-13T09:35:09.831Z,8220
2017-08-13T09:36:10.146Z,9776
2017-08-13T09:37:09.816Z,12688
2017-08-13T09:38:09.825Z,14872
2017-08-13T09:39:09.836Z,11624
2017-08-13T09:40:09.840Z,12984
2017-08-13T09:41:10.159Z,12588
2017-08-13T09:42:09.819Z,13788
2017-08-13T09:43:09.820Z,11204
2017-08-13T09:44:09.816Z,10820
2017-08-13T09:45:09.805Z,12400
2017-08-13T09:46:09.825Z,11316
2017-08-13T09:47:09.797Z,10052
2017-08-13T09:48:09.808Z,14680
2017-08-13T09:49:10.124Z,14004
2017-08-13T09:50:09.803Z,14504
2017-08-13T09:51:09.809Z,11696
2017-08-13T09:52:10.119Z,10792
2017-08-13T09:53:09.483Z,12888
2017-08-13T09:54:09.477Z,10120
2017-08-13T09:55:09.793Z,8704
2017-08-13T09:56:09.815Z,13308
2017-08-13T09:57:09.807Z,16312
2017-08-13T09:58:09.782Z,14440
2017-08-13T09:59:09.783Z,15008
2017-08-13T10:00:09.789Z,13208
2017-08-13T10:01:09.460Z,14480
2017-08-13T10:02:09.791Z,17888
2017-08-13T10:03:09.779Z,16480
2017-08-13T10:04:09.775Z,19680
2017-08-13T10:05:09.461Z,18432
2017-08-13T10:06:10.121Z,17312
2017-08-13T10:07:09.772Z,17248
2017-08-13T10:08:10.115Z,17664
2017-08-13T10:09:10.107Z,13620
2017-08-13T10:10:10.110Z,12788
2017-08-13T10:11:10.091Z,16672
2017-08-13T10:12:09.809Z,16768
2017-08-13T10:13:09.769Z,17664
2017-08-13T10:14:10.099Z,15204
2017-08-13T10:15:10.160Z,18304
2017-08-13T10:16:10.136Z,19296
2017-08-13T10:17:09.774Z,19584
2017-08-13T10:18:09.811Z,20960
2017-08-13T10:19:09.791Z,20096
2017-08-13T10:20:09.448Z,16896
2017-08-13T10:21:09.446Z,15272
2017-08-13T10:22:10.172Z,14504
2017-08-13T10:23:09.466Z,13400
2017-08-13T10:24:10.096Z,12260
2017-08-13T10:25:10.094Z,14352
2017-08-13T10:26:10.094Z,17472
2017-08-13T10:27:10.107Z,17824
2017-08-13T10:28:10.088Z,15916
2017-08-13T10:29:10.109Z,14596
2017-08-13T10:30:09.807Z,15560
2017-08-13T10:31:09.772Z,18400
2017-08-13T10:32:09.785Z,19328
2017-08-13T10:33:09.450Z,15100
2017-08-13T10:34:09.184Z,12852
2017-08-13T10:35:09.776Z,12768
2017-08-13T10:36:09.791Z,11780
2017-08-13T10:37:09.797Z,11164
2017-08-13T10:38:10.084Z,12540
2017-08-13T10:39:10.092Z,13060
2017-08-13T10:40:09.781Z,10872
2017-08-13T10:41:09.475Z,9172
2017-08-13T10:42:10.111Z,8800
2017-08-13T10:43:10.093Z,9560
2017-08-13T10:44:10.101Z,9308
2017-08-13T10:45:09.790Z,7784
2017-08-13T10:46:10.096Z,10856
2017-08-13T10:47:10.086Z,13788
2017-08-13T10:48:09.444Z,11312
2017-08-13T10:49:09.443Z,8756
2017-08-13T10:50:09.452Z,8224
2017-08-13T10:51:10.089Z,7084
2017-08-13T10:52:10.092Z,9428
2017-08-13T10:53:10.093Z,11036
2017-08-13T10:54:09.459Z,12480
2017-08-13T10:55:10.089Z,14884
2017-08-13T10:56:10.100Z,12448
2017-08-13T10:57:09.776Z,15012
2017-08-13T10:58:10.091Z,18496
2017-08-13T10:59:10.081Z,17696
2017-08-13T11:00:09.784Z,15796
2017-08-13T11:01:10.080Z,16000
2017-08-13T11:02:10.097Z,16352
2017-08-13T11:03:10.083Z,17792
2017-08-13T11:04:09.760Z,11800
2017-08-13T11:05:09.431Z,9824
2017-08-13T11:06:10.091Z,6024
2017-08-13T11:07:09.488Z,8268
2017-08-13T11:08:09.780Z,13536
2017-08-13T11:09:09.788Z,16416
2017-08-13T11:10:09.800Z,15908
2017-08-13T11:11:09.124Z,15940
2017-08-13T11:12:09.446Z,15080
2017-08-13T11:13:09.778Z,10464
2017-08-13T11:14:09.767Z,7900
2017-08-13T11:15:10.080Z,9244
2017-08-13T11:16:09.442Z,11396
2017-08-13T11:17:09.764Z,11532
2017-08-13T11:18:09.754Z,7984
2017-08-13T11:19:10.076Z,5488
2017-08-13T11:20:10.097Z,6688
2017-08-13T11:21:10.087Z,6908
2017-08-13T11:22:10.085Z,11104
2017-08-13T11:23:10.083Z,10172
2017-08-13T11:24:09.764Z,9584
2017-08-13T11:25:09.796Z,15356
2017-08-13T11:26:09.760Z,17280
2017-08-13T11:27:09.766Z,16608
2017-08-13T11:28:09.757Z,12420
2017-08-13T11:29:10.100Z,14088
2017-08-13T11:30:10.175Z,16928
2017-08-13T11:31:10.137Z,14208
2017-08-13T11:32:09.761Z,15164
2017-08-13T11:33:09.438Z,16736
2017-08-13T11:34:09.754Z,16048
2017-08-13T11:35:09.791Z,19040
2017-08-13T11:36:09.126Z,18656
2017-08-13T11:37:10.083Z,17024
2017-08-13T11:38:09.762Z,15812
2017-08-13T11:39:10.084Z,15716
2017-08-13T11:40:10.087Z,14376
2017-08-13T11:41:10.127Z,12452
2017-08-13T11:42:10.111Z,13164
2017-08-13T11:43:09.441Z,12392
2017-08-13T11:44:09.836Z,8632
2017-08-13T11:45:09.772Z,6884
2017-08-13T11:46:09.989Z,6764
2017-08-13T11:47:09.489Z,8212
2017-08-13T11:48:09.765Z,9324
2017-08-13T11:49:10.111Z,8016
2017-08-13T11:50:10.098Z,7360
2017-08-13T11:51:09.776Z,5888
2017-08-13T11:52:10.092Z,7628
2017-08-13T11:53:10.092Z,8120
2017-08-13T11:54:10.161Z,5924
2017-08-13T11:55:10.129Z,4452
2017-08-13T11:56:09.455Z,4828
2017-08-13T11:57:10.124Z,4184
2017-08-13T11:58:09.454Z,4500
2017-08-13T11:59:09.800Z,5300
2017-08-13T12:00:09.782Z,6864
2017-08-13T12:01:10.152Z,6348
2017-08-13T12:02:09.796Z,5296
2017-08-13T12:03:09.772Z,4516
2017-08-13T12:04:09.781Z,4456
2017-08-13T12:05:10.098Z,4520
2017-08-13T12:06:10.117Z,5232
2017-08-13T12:07:09.808Z,5612
2017-08-13T12:08:09.456Z,7272
2017-08-13T12:09:09.485Z,6816
2017-08-13T12:10:09.810Z,6464
2017-08-13T12:11:09.798Z,7264
2017-08-13T12:12:10.130Z,6924
2017-08-13T12:13:09.159Z,6540
2017-08-13T12:14:09.455Z,8288
2017-08-13T12:15:10.105Z,11736
2017-08-13T12:16:10.096Z,12500
2017-08-13T12:17:09.782Z,9064
2017-08-13T12:18:09.450Z,6684
2017-08-13T12:19:09.448Z,6872
2017-08-13T12:20:09.782Z,8096
2017-08-13T12:21:09.772Z,8496
2017-08-13T12:22:09.794Z,7492
2017-08-13T12:23:09.774Z,7348
2017-08-13T12:24:09.805Z,8924
2017-08-13T12:25:10.112Z,9400
2017-08-13T12:26:09.788Z,9596
2017-08-13T12:27:09.782Z,9492
2017-08-13T12:28:09.776Z,9148
2017-08-13T12:29:09.768Z,8880
2017-08-13T12:30:10.124Z,8448
2017-08-13T12:31:09.804Z,8352
2017-08-13T12:32:09.776Z,7884
2017-08-13T12:33:09.442Z,7412
2017-08-13T12:34:09.769Z,8296
2017-08-13T12:35:09.445Z,10440
2017-08-13T12:36:09.449Z,13824
2017-08-13T12:37:10.081Z,13296
2017-08-13T12:38:09.790Z,13056
2017-08-13T12:39:09.786Z,12892
2017-08-13T12:40:09.771Z,11976
2017-08-13T12:41:10.078Z,11904
2017-08-13T12:42:09.757Z,10204
2017-08-13T12:43:10.124Z,10504
2017-08-13T12:44:09.758Z,8476
2017-08-13T12:45:10.076Z,8284
2017-08-13T12:46:09.752Z,11068
2017-08-13T12:47:09.758Z,14308
2017-08-13T12:48:09.427Z,18336
2017-08-13T12:49:09.435Z,15604
2017-08-13T12:50:09.754Z,11692
2017-08-13T12:51:09.745Z,11896
2017-08-13T12:52:10.068Z,12352
2017-08-13T12:53:10.067Z,10696
2017-08-13T12:54:09.773Z,8668
2017-08-13T12:55:10.077Z,7400
2017-08-13T12:56:09.743Z,6668
2017-08-13T12:57:09.747Z,7100
2017-08-13T12:58:09.760Z,8036
2017-08-13T12:59:09.741Z,8512
2017-08-13T13:00:10.064Z,7564
2017-08-13T13:01:10.311Z,7588
2017-08-13T13:02:09.788Z,7464
2017-08-13T13:03:09.752Z,7648
2017-08-13T13:04:09.740Z,9176
2017-08-13T13:05:09.737Z,9828
2017-08-13T13:06:09.728Z,12268
2017-08-13T13:07:10.068Z,14120
2017-08-13T13:08:09.774Z,14920
2017-08-13T13:09:09.421Z,14948
2017-08-13T13:10:10.093Z,14840
2017-08-13T13:11:10.058Z,16704
2017-08-13T13:12:09.400Z,14972
2017-08-13T13:13:10.047Z,15228
2017-08-13T13:14:10.062Z,15068
2017-08-13T13:15:10.056Z,13716
2017-08-13T13:16:09.731Z,13500
2017-08-13T13:17:10.049Z,12648
2017-08-13T13:18:09.741Z,11540
2017-08-13T13:19:09.746Z,11932
2017-08-13T13:20:09.393Z,11196
2017-08-13T13:21:09.727Z,11284
2017-08-13T13:22:09.740Z,13108
2017-08-13T13:23:09.722Z,11396
2017-08-13T13:24:09.718Z,9232
2017-08-13T13:25:10.037Z,9192
2017-08-13T13:26:10.055Z,8716
2017-08-13T13:27:09.728Z,7624
2017-08-13T13:28:09.710Z,7148
2017-08-13T13:29:09.851Z,6456
2017-08-13T13:30:09.068Z,5440
2017-08-13T13:31:10.027Z,4256
2017-08-13T13:32:10.038Z,3176
2017-08-13T13:33:10.042Z,3612
2017-08-13T13:34:10.046Z,5168